W K Kellogg Airport
KBTL : now visible

Airfield :











YOU CAN JOIN US ON...

 
LOGIN :

Register | Disclaimer

   EN    FR    IT 

 









Legend :    VFR   Marginal VFR   IFR   Intensive IFR   Very Intensive IFR
Visi :
Ceiling :
>= 8 km
>= 3000ft
5 to 8 km
1000 to 3000 ft
1500m to 5 km
500 to 1000 ft
800 to 1500m
200 to 500 ft
< 800m
< 200 ft
Symbols :   Thunderstorms  Fog  Heavy snow  Heavy precipitations  Wind > 20 kt






- Airport Elevation : 952 ft


KBTL - W K Kellogg

CURRENT METAR :
  • 290553Z AUTO 21009KT 10SM CLR 25/22 A2993 RMK AO2 RAE06 SLP127 P0000 60000 T02500222 10283 20250 58016

EXPIRED METARs :
  • 290453Z AUTO 18007KT 10SM -RA FEW100 SCT120 25/22 A2996 RMK AO2 RAB51 SLP137 P0000 T02500222 403060194
  • 290353Z AUTO 22005KT 10SM CLR 25/22 A2998 RMK AO2 SLP142 T02500222

TAF KBTL
Valid from the 29 at 06:00 until the 30 at 06:00 UTC


290521Z 2906/3006 22005KT P6SM VCSH SCT050 BKN120 BKN240
FM291000 18006KT P6SM -TSRA OVC035CB
TEMPO 2911/2914 VRB15G25KT 2SM +TSRA BR OVC015CB
FM291400 18004KT 4SM -SHRA OVC050
FM291600 30007KT P6SM BKN025
FM291800 32010KT P6SM BKN050
FM300000 36009KT P6SM SKC
KZAU FIR / North America



MET'MAP, your aeronautical weather chart ! - Copyright ORBIFLY December 2007 - Disclaimer

ORBIFLY MET'MAP TEAM :

Programming & Development : Alexandra Zaïnal
Concept & original design : Baudouin d'Aumeries
Assistance for programming : Marc-Olivier Méhu
Technical & hardware support : Manuel Goepfert

Contact : metmap@orbifly.com




SOURCES & CREDITS :

   NOAA       Earth
Advisory